Time;durP1;ratioP1;P1;durP2;ratioP2;P2;SDS_P1;SDS_P2;PMS_P1;PMS_P2;Temp;Humidity;BMP_temperature;BMP_pressure;BME280_temperature;BME280_humidity;BME280_pressure;Samples;Min_cycle;Max_cycle;Signal;HPM_P1;HPM_P2
2021/10/18 00:01:29;;;;;;;41.60;15.40;;;7.20;99.50;;;;;;5034378;28;20619;-76
2021/10/18 00:03:55;;;;;;;45.90;16.90;;;7.20;99.50;;;;;;5033884;28;20212;-76
2021/10/18 00:06:20;;;;;;;43.83;17.27;;;7.20;99.50;;;;;;5034275;28;20192;-75
2021/10/18 00:08:46;;;;;;;45.43;16.73;;;7.20;99.70;;;;;;5034076;28;20181;-74
2021/10/18 00:11:12;;;;;;;45.30;15.83;;;7.20;99.80;;;;;;5035980;28;20251;-75
2021/10/18 00:13:38;;;;;;;47.10;17.40;;;7.20;99.90;;;;;;5039886;28;20187;-74
2021/10/18 00:16:04;;;;;;;43.87;18.00;;;7.30;99.90;;;;;;5037716;28;20675;-74
2021/10/18 00:18:30;;;;;;;44.13;16.93;;;7.30;99.80;;;;;;5035909;28;20668;-73
2021/10/18 00:20:56;;;;;;;46.20;18.10;;;7.30;99.60;;;;;;5043611;28;20466;-74
2021/10/18 00:23:21;;;;;;;43.60;17.20;;;7.40;99.60;;;;;;5040667;28;20235;-75
2021/10/18 00:25:47;;;;;;;37.00;14.77;;;7.40;99.50;;;;;;5041482;28;20239;-75
2021/10/18 00:28:13;;;;;;;46.70;16.50;;;7.40;99.30;;;;;;5035891;28;20181;-75
2021/10/18 00:30:39;;;;;;;43.47;17.13;;;7.40;99.30;;;;;;5027612;28;20423;-74
2021/10/18 00:33:05;;;;;;;42.03;16.57;;;7.40;99.30;;;;;;5034077;28;20189;-74
2021/10/18 00:35:30;;;;;;;44.90;16.07;;;7.40;99.30;;;;;;5026172;28;20249;-75
2021/10/18 00:37:56;;;;;;;47.73;18.53;;;7.50;99.30;;;;;;5034207;28;20264;-74
2021/10/18 00:40:22;;;;;;;44.80;16.93;;;7.50;99.20;;;;;;5033994;28;20975;-74
2021/10/18 00:42:51;;;;;;;43.07;16.63;;;7.50;99.30;;;;;;5028274;28;20312;-74
2021/10/18 00:45:17;;;;;;;40.70;17.33;;;7.50;99.30;;;;;;5033378;28;20247;-74
2021/10/18 00:47:43;;;;;;;39.73;17.13;;;7.60;99.20;;;;;;5032538;28;20435;-74
2021/10/18 00:50:09;;;;;;;45.27;16.10;;;7.60;99.20;;;;;;5032988;28;20428;-75
2021/10/18 00:52:36;;;;;;;41.13;16.10;;;7.70;99.00;;;;;;5033070;28;20307;-74
2021/10/18 00:55:03;;;;;;;33.97;14.97;;;7.70;98.90;;;;;;5036729;28;20428;-74
2021/10/18 00:57:28;;;;;;;41.93;17.37;;;7.80;98.80;;;;;;5031768;28;20420;-74
2021/10/18 00:59:55;;;;;;;40.27;16.07;;;7.80;98.70;;;;;;5040045;28;20475;-74
2021/10/18 01:02:22;;;;;;;39.90;15.03;;;7.90;98.60;;;;;;5040975;28;20436;-74
2021/10/18 01:04:48;;;;;;;42.63;15.33;;;7.90;98.50;;;;;;5036615;28;20466;-75
2021/10/18 01:07:14;;;;;;;28.57;13.90;;;7.90;98.30;;;;;;5033918;28;20412;-74
2021/10/18 01:09:40;;;;;;;30.57;14.73;;;8.00;98.10;;;;;;5040913;28;20420;-75
2021/10/18 01:12:06;;;;;;;25.97;13.10;;;7.90;97.90;;;;;;5043854;28;20534;-74
2021/10/18 01:14:32;;;;;;;37.03;14.63;;;7.80;97.30;;;;;;5038514;28;20833;-75
2021/10/18 01:16:58;;;;;;;34.00;13.80;;;7.80;97.30;;;;;;5032989;28;20435;-74
2021/10/18 01:19:24;;;;;;;40.97;17.47;;;7.80;97.40;;;;;;5032240;28;20416;-75
2021/10/18 01:21:56;;;;;;;35.40;13.43;;;7.90;97.50;;;;;;5032588;28;20216;-74
2021/10/18 01:24:22;;;;;;;36.97;14.00;;;7.90;97.60;;;;;;5031881;28;20495;-75
2021/10/18 01:26:48;;;;;;;46.43;17.70;;;7.90;97.50;;;;;;5033142;28;20416;-75
2021/10/18 01:29:14;;;;;;;36.93;15.00;;;7.90;97.60;;;;;;5033692;28;20914;-76
2021/10/18 01:31:40;;;;;;;38.97;15.20;;;7.90;97.50;;;;;;5033596;28;20231;-75
2021/10/18 01:34:07;;;;;;;38.97;15.07;;;7.90;97.50;;;;;;5032010;28;20191;-76
2021/10/18 01:36:35;;;;;;;43.10;18.47;;;7.90;97.50;;;;;;5034036;28;20497;-76
2021/10/18 01:39:01;;;;;;;38.93;15.67;;;8.00;97.40;;;;;;5033852;28;20490;-74
2021/10/18 01:41:27;;;;;;;44.10;17.17;;;8.00;97.40;;;;;;5034272;28;20465;-75
2021/10/18 01:43:52;;;;;;;36.83;14.90;;;8.00;97.30;;;;;;5039055;28;20470;-75
2021/10/18 01:46:18;;;;;;;43.33;17.60;;;8.00;97.20;;;;;;5036077;28;20173;-76
2021/10/18 01:48:45;;;;;;;35.30;16.50;;;8.00;97.20;;;;;;5036024;28;20178;-75
2021/10/18 01:51:11;;;;;;;45.50;17.67;;;7.90;97.30;;;;;;5039065;28;20205;-75
2021/10/18 01:53:37;;;;;;;40.37;17.43;;;7.90;97.30;;;;;;5036418;28;20486;-75
2021/10/18 01:56:04;;;;;;;48.00;17.10;;;8.00;97.40;;;;;;5035841;28;20424;-75
2021/10/18 01:58:31;;;;;;;42.40;17.90;;;7.90;97.50;;;;;;5034319;28;20431;-75
2021/10/18 02:01:03;;;;;;;42.73;17.23;;;8.00;97.50;;;;;;5032979;28;20969;-76
2021/10/18 02:03:29;;;;;;;42.30;18.50;;;8.00;97.40;;;;;;5025815;28;20491;-74
2021/10/18 02:05:55;;;;;;;37.20;16.20;;;8.00;97.40;;;;;;5034257;28;20427;-75
2021/10/18 02:08:21;;;;;;;40.67;16.83;;;8.00;97.50;;;;;;5035279;28;20424;-75
2021/10/18 02:10:47;;;;;;;42.70;18.57;;;8.10;97.50;;;;;;5034967;28;20663;-76
2021/10/18 02:13:13;;;;;;;40.83;16.70;;;8.10;97.40;;;;;;5035858;28;20420;-74
2021/10/18 02:15:39;;;;;;;49.37;18.17;;;8.00;97.40;;;;;;5040186;28;20463;-74
2021/10/18 02:18:05;;;;;;;35.00;15.77;;;8.10;97.50;;;;;;5043231;28;20428;-76
2021/10/18 02:20:31;;;;;;;48.17;17.77;;;8.10;97.50;;;;;;5043426;28;20431;-75
2021/10/18 02:22:57;;;;;;;44.50;17.17;;;8.20;97.50;;;;;;5040405;28;20440;-73
2021/10/18 02:25:23;;;;;;;48.13;18.57;;;8.20;97.40;;;;;;5040281;28;20471;-75
2021/10/18 02:27:49;;;;;;;39.67;16.67;;;8.30;97.20;;;;;;5040903;28;20622;-75
2021/10/18 02:30:15;;;;;;;44.17;17.47;;;8.30;97.00;;;;;;5034247;28;20181;-74
2021/10/18 02:32:41;;;;;;;40.70;16.60;;;8.30;97.00;;;;;;5030105;28;20456;-75
2021/10/18 02:35:10;;;;;;;37.70;16.43;;;8.30;97.00;;;;;;5024381;28;20585;-74
2021/10/18 02:37:37;;;;;;;41.47;17.03;;;8.30;96.70;;;;;;5030849;28;20502;-74
2021/10/18 02:40:04;;;;;;;35.60;16.17;;;8.20;96.70;;;;;;5031575;28;20451;-74
2021/10/18 02:42:30;;;;;;;26.70;11.90;;;8.20;96.50;;;;;;5024924;28;20538;-75
2021/10/18 02:44:56;;;;;;;34.93;13.47;;;8.20;96.50;;;;;;5030841;28;20477;-75
2021/10/18 02:47:22;;;;;;;35.30;12.93;;;8.20;96.20;;;;;;5031961;28;20442;-75
2021/10/18 02:49:48;;;;;;;36.40;14.10;;;8.20;96.20;;;;;;5033434;28;20196;-74
2021/10/18 02:52:14;;;;;;;35.47;13.43;;;8.10;96.10;;;;;;5029395;28;20451;-76
2021/10/18 02:54:40;;;;;;;27.40;12.23;;;8.10;96.10;;;;;;5030482;28;20185;-74
2021/10/18 02:57:06;;;;;;;35.90;13.30;;;8.00;96.10;;;;;;5031228;28;20656;-73
2021/10/18 02:59:32;;;;;;;30.23;12.40;;;8.10;96.00;;;;;;5030360;28;20436;-75
2021/10/18 03:01:58;;;;;;;35.23;14.13;;;8.10;96.00;;;;;;5030586;28;20854;-74
2021/10/18 03:04:23;;;;;;;29.50;13.60;;;7.90;95.80;;;;;;5028446;28;20205;-74
2021/10/18 03:06:49;;;;;;;36.87;12.40;;;7.90;95.80;;;;;;5029221;28;20431;-74
2021/10/18 03:09:15;;;;;;;26.80;12.60;;;7.80;95.80;;;;;;5030373;28;20651;-74
2021/10/18 03:11:41;;;;;;;29.10;11.83;;;7.80;95.90;;;;;;5033778;28;20547;-74
2021/10/18 03:14:07;;;;;;;29.87;12.27;;;7.80;96.10;;;;;;5034130;28;20439;-75
2021/10/18 03:16:33;;;;;;;31.33;13.40;;;7.90;96.30;;;;;;5031729;28;20239;-75
2021/10/18 03:18:58;;;;;;;30.17;12.83;;;7.90;96.30;;;;;;5031172;28;20189;-75
2021/10/18 03:21:24;;;;;;;27.60;12.00;;;7.90;96.30;;;;;;5030092;28;20530;-74
2021/10/18 03:23:50;;;;;;;35.13;14.00;;;8.00;96.40;;;;;;5029664;28;20787;-75
2021/10/18 03:26:16;;;;;;;33.57;13.23;;;8.00;96.40;;;;;;5030273;28;20867;-74
2021/10/18 03:28:42;;;;;;;30.97;13.20;;;8.10;96.30;;;;;;5032778;28;20183;-74
2021/10/18 03:31:09;;;;;;;35.23;12.57;;;8.10;96.20;;;;;;5032327;28;20213;-75
2021/10/18 03:33:39;;;;;;;36.33;14.60;;;8.10;96.10;;;;;;5027233;28;20435;-75
2021/10/18 03:36:06;;;;;;;36.73;15.30;;;8.20;96.10;;;;;;5025592;28;20923;-74
2021/10/18 03:38:32;;;;;;;36.37;14.50;;;8.20;96.00;;;;;;5029603;28;20798;-75
2021/10/18 03:40:58;;;;;;;38.00;15.07;;;8.20;96.10;;;;;;5030307;28;20456;-74
2021/10/18 03:43:24;;;;;;;39.37;14.50;;;8.30;96.00;;;;;;5030027;28;20463;-74
2021/10/18 03:45:50;;;;;;;39.43;17.20;;;8.30;96.00;;;;;;5030130;28;20268;-75
2021/10/18 03:48:15;;;;;;;44.93;16.80;;;8.30;96.10;;;;;;5028332;28;20934;-75
2021/10/18 03:50:42;;;;;;;31.83;13.73;;;8.30;96.20;;;;;;5030001;28;20420;-73
2021/10/18 03:53:08;;;;;;;44.10;15.43;;;8.30;96.20;;;;;;5029778;28;20208;-74
2021/10/18 03:55:34;;;;;;;39.73;15.47;;;8.40;96.20;;;;;;5029364;28;21255;-74
2021/10/18 03:57:59;;;;;;;46.37;17.27;;;8.40;96.00;;;;;;5029838;28;20427;-75
2021/10/18 04:00:25;;;;;;;36.93;15.43;;;8.50;96.00;;;;;;5030384;28;20607;-75
2021/10/18 04:02:51;;;;;;;39.47;16.50;;;8.50;95.90;;;;;;5030246;28;20254;-75
2021/10/18 04:05:17;;;;;;;43.50;15.83;;;8.50;96.00;;;;;;5029876;28;20459;-74
2021/10/18 04:07:47;;;;;;;46.47;20.20;;;8.50;96.10;;;;;;5030501;28;20788;-75
2021/10/18 04:10:15;;;;;;;44.93;17.53;;;8.60;96.10;;;;;;5031667;28;20424;-75
2021/10/18 04:12:40;;;;;;;40.07;17.97;;;8.50;95.90;;;;;;5033473;28;20471;-74
2021/10/18 04:15:07;;;;;;;48.97;18.00;;;8.50;95.90;;;;;;5033415;28;20470;-74
2021/10/18 04:17:32;;;;;;;48.70;19.17;;;8.50;96.10;;;;;;5032950;28;20192;-76
2021/10/18 04:19:58;;;;;;;40.10;17.00;;;8.60;96.10;;;;;;5034406;28;20599;-74
2021/10/18 04:22:24;;;;;;;42.57;19.40;;;8.60;96.10;;;;;;5035794;28;20730;-75
2021/10/18 04:24:50;;;;;;;45.17;17.70;;;8.60;95.90;;;;;;5031248;28;20227;-75
2021/10/18 04:27:16;;;;;;;46.13;16.97;;;8.60;95.60;;;;;;5039771;28;20582;-74
2021/10/18 04:29:42;;;;;;;57.93;21.97;;;8.60;95.70;;;;;;5039878;28;20269;-73
2021/10/18 04:32:08;;;;;;;48.10;17.90;;;8.60;95.60;;;;;;5034909;28;20452;-75
2021/10/18 04:34:34;;;;;;;50.10;19.00;;;8.50;95.70;;;;;;5032898;28;20443;-74
2021/10/18 04:36:59;;;;;;;43.33;19.40;;;8.50;95.80;;;;;;5033991;28;20906;-74
2021/10/18 04:39:25;;;;;;;48.77;17.50;;;8.60;96.00;;;;;;5036925;28;20197;-75
2021/10/18 04:41:51;;;;;;;50.83;17.57;;;8.60;95.90;;;;;;5036637;28;20209;-74
2021/10/18 04:44:17;;;;;;;54.43;19.20;;;8.70;96.00;;;;;;5036710;28;20464;-73
2021/10/18 04:46:42;;;;;;;48.20;18.30;;;8.70;95.80;;;;;;5036971;28;20536;-75
2021/10/18 04:49:08;;;;;;;43.90;16.73;;;8.70;95.60;;;;;;5035062;28;20640;-74
2021/10/18 04:51:34;;;;;;;53.63;18.17;;;8.70;95.60;;;;;;5036887;28;20215;-74
2021/10/18 04:54:00;;;;;;;48.07;18.50;;;8.70;95.60;;;;;;5039603;28;20189;-74
2021/10/18 04:56:26;;;;;;;40.20;18.47;;;8.70;95.70;;;;;;5041858;28;20463;-74
2021/10/18 04:58:53;;;;;;;41.20;17.00;;;8.70;95.80;;;;;;5040229;28;20428;-73
2021/10/18 05:01:19;;;;;;;38.57;15.20;;;8.80;95.90;;;;;;5041827;28;20213;-74
2021/10/18 05:03:45;;;;;;;49.73;17.77;;;8.80;95.70;;;;;;5044926;28;20459;-78
2021/10/18 05:06:11;;;;;;;45.33;17.13;;;8.80;95.60;;;;;;5046021;28;20423;-74
2021/10/18 05:08:37;;;;;;;50.50;19.70;;;8.90;95.50;;;;;;5038603;28;20169;-75
2021/10/18 05:11:02;;;;;;;43.37;17.00;;;8.90;95.40;;;;;;5035515;28;20213;-75
2021/10/18 05:13:28;;;;;;;51.60;19.37;;;8.90;95.50;;;;;;5023914;28;20185;-75
2021/10/18 05:15:54;;;;;;;45.70;17.80;;;8.90;95.30;;;;;;5033585;28;20432;-75
2021/10/18 05:18:21;;;;;;;47.43;17.63;;;8.90;95.40;;;;;;5034327;28;20213;-75
2021/10/18 05:20:51;;;;;;;49.00;18.70;;;8.90;95.40;;;;;;5032906;28;20427;-76
2021/10/18 05:23:17;;;;;;;45.60;18.80;;;8.90;95.30;;;;;;5034754;28;20561;-75
2021/10/18 05:25:43;;;;;;;44.13;19.53;;;8.90;95.30;;;;;;5035344;28;20914;-77
2021/10/18 05:28:09;;;;;;;62.03;22.57;;;8.90;95.20;;;;;;5035786;28;20435;-74
2021/10/18 05:30:35;;;;;;;48.80;20.00;;;8.70;95.20;;;;;;5039451;28;20531;-74
2021/10/18 05:33:01;;;;;;;48.57;17.37;;;8.70;95.60;;;;;;5041173;28;20293;-74
2021/10/18 05:35:27;;;;;;;55.87;19.07;;;8.70;95.80;;;;;;5037291;28;20503;-75
2021/10/18 05:37:53;;;;;;;53.70;20.17;;;8.80;95.90;;;;;;5033383;28;20485;-76
2021/10/18 05:40:20;;;;;;;50.40;20.10;;;8.90;96.00;;;;;;5034928;28;20416;-75
2021/10/18 05:42:47;;;;;;;49.13;19.87;;;8.90;95.80;;;;;;5039994;28;20431;-78
2021/10/18 05:45:13;;;;;;;58.60;22.83;;;8.90;95.70;;;;;;5050056;28;20493;-78
2021/10/18 05:47:52;;;;;;;54.87;18.63;;;9.00;95.70;;;;;;5045302;28;20489;-78
2021/10/18 05:50:19;;;;;;;55.23;19.93;;;9.00;95.70;;;;;;5043811;28;20429;-79
2021/10/18 05:52:44;;;;;;;55.07;21.90;;;9.00;95.60;;;;;;5039829;28;20458;-79
2021/10/18 05:55:10;;;;;;;47.67;17.47;;;8.90;95.40;;;;;;5033505;28;20495;-79
2021/10/18 05:57:53;;;;;;;38.37;17.10;;;8.90;95.60;;;;;;5035456;28;20200;-79
2021/10/18 06:00:20;;;;;;;50.87;20.00;;;8.90;95.40;;;;;;5037183;28;20189;-78
2021/10/18 06:02:47;;;;;;;50.47;19.37;;;9.00;95.30;;;;;;5035252;28;20428;-77
2021/10/18 06:05:13;;;;;;;47.30;18.50;;;9.00;95.20;;;;;;5035584;28;20550;-79
2021/10/18 06:07:39;;;;;;;53.40;20.00;;;9.10;95.10;;;;;;5036389;28;20482;-79
2021/10/18 06:10:06;;;;;;;52.13;18.40;;;9.10;95.10;;;;;;5036084;28;20438;-78
2021/10/18 06:12:32;;;;;;;41.70;17.50;;;9.20;95.20;;;;;;5035650;28;20446;-79
2021/10/18 06:14:58;;;;;;;44.33;17.20;;;9.30;95.10;;;;;;5034848;28;20427;-78
2021/10/18 06:17:24;;;;;;;44.70;18.63;;;9.30;94.90;;;;;;5040881;28;20428;-74
2021/10/18 06:19:50;;;;;;;40.70;16.20;;;9.40;94.70;;;;;;5033238;28;20264;-75
2021/10/18 06:22:15;;;;;;;49.50;20.07;;;9.40;94.50;;;;;;5034992;28;20212;-74
2021/10/18 06:24:41;;;;;;;45.67;18.83;;;9.40;94.40;;;;;;5051022;28;20208;-75
2021/10/18 06:27:07;;;;;;;44.53;18.53;;;9.40;94.40;;;;;;5039825;28;20188;-74
2021/10/18 06:29:33;;;;;;;38.13;16.93;;;9.40;94.30;;;;;;5033393;28;20232;-74
2021/10/18 06:31:58;;;;;;;40.10;18.40;;;9.50;94.40;;;;;;5033138;28;20694;-73
2021/10/18 06:34:24;;;;;;;45.37;17.10;;;9.50;94.30;;;;;;5032943;28;20208;-75
2021/10/18 06:36:50;;;;;;;43.67;16.70;;;9.50;94.20;;;;;;5034844;28;20185;-73
2021/10/18 06:39:16;;;;;;;44.80;17.43;;;9.60;94.10;;;;;;5033831;28;20521;-73
2021/10/18 06:41:41;;;;;;;44.97;16.73;;;9.60;94.00;;;;;;5033170;28;20258;-74
2021/10/18 06:44:07;;;;;;;40.37;16.13;;;9.60;94.00;;;;;;5033548;28;20736;-75
2021/10/18 06:46:33;;;;;;;40.87;16.87;;;9.70;94.00;;;;;;5033306;28;20181;-75
2021/10/18 06:49:00;;;;;;;47.17;16.63;;;9.80;93.70;;;;;;5031640;28;20220;-75
2021/10/18 06:51:32;;;;;;;39.93;16.73;;;9.80;93.50;;;;;;5030312;28;20444;-75
2021/10/18 06:53:57;;;;;;;45.00;16.37;;;9.80;93.50;;;;;;5031616;28;20630;-75
2021/10/18 06:56:23;;;;;;;38.97;17.00;;;9.90;93.30;;;;;;5030603;28;20526;-74
2021/10/18 06:58:49;;;;;;;39.40;16.50;;;9.90;93.20;;;;;;5032247;28;20197;-74
2021/10/18 07:01:15;;;;;;;41.83;16.83;;;10.00;92.90;;;;;;5031198;28;20213;-74
2021/10/18 07:03:40;;;;;;;43.73;16.20;;;10.10;92.70;;;;;;5031903;28;20213;-75
2021/10/18 07:06:06;;;;;;;40.50;15.70;;;10.00;92.50;;;;;;5032507;28;20199;-76
2021/10/18 07:08:32;;;;;;;34.87;15.40;;;10.10;92.40;;;;;;5032607;28;20192;-75
2021/10/18 07:10:58;;;;;;;40.00;16.70;;;10.10;92.30;;;;;;5035157;28;20470;-74
2021/10/18 07:13:23;;;;;;;41.97;16.97;;;10.10;92.20;;;;;;5034456;28;20193;-75
2021/10/18 07:15:49;;;;;;;38.30;16.30;;;10.20;92.00;;;;;;5034226;28;20435;-76
2021/10/18 07:18:15;;;;;;;35.27;16.07;;;10.20;91.80;;;;;;5034280;28;20181;-73
2021/10/18 07:20:41;;;;;;;31.10;13.97;;;10.20;91.60;;;;;;5034983;28;20185;-73
2021/10/18 07:23:09;;;;;;;36.13;15.03;;;10.20;91.40;;;;;;5032188;28;20272;-74
2021/10/18 07:25:36;;;;;;;30.63;14.27;;;10.30;91.10;;;;;;5031931;28;20213;-73
2021/10/18 07:28:02;;;;;;;31.70;13.83;;;10.30;91.00;;;;;;5031780;28;20423;-75
2021/10/18 07:30:28;;;;;;;33.13;15.40;;;10.30;90.90;;;;;;5030305;28;20432;-73
2021/10/18 07:32:53;;;;;;;32.70;15.57;;;10.30;91.10;;;;;;5033948;28;20624;-74
2021/10/18 07:35:21;;;;;;;34.90;14.37;;;10.30;91.00;;;;;;5025692;28;20231;-73
2021/10/18 07:37:54;;;;;;;37.43;17.10;;;10.40;90.90;;;;;;5031772;28;20185;-75
2021/10/18 07:40:21;;;;;;;33.87;15.23;;;10.30;90.70;;;;;;5032231;28;20427;-74
2021/10/18 07:42:46;;;;;;;35.13;14.97;;;10.30;90.90;;;;;;5032319;28;20475;-76
2021/10/18 07:45:12;;;;;;;38.70;16.47;;;10.30;90.80;;;;;;5029847;28;20500;-74
2021/10/18 07:47:38;;;;;;;29.67;15.93;;;10.30;90.70;;;;;;5032498;28;20185;-74
2021/10/18 07:50:06;;;;;;;35.83;16.70;;;10.30;90.80;;;;;;5031005;28;20508;-74
2021/10/18 07:52:32;;;;;;;41.77;16.37;;;10.30;91.00;;;;;;5032626;28;20503;-73
2021/10/18 07:55:03;;;;;;;36.00;16.50;;;10.40;90.90;;;;;;5030818;28;20454;-74
2021/10/18 07:57:29;;;;;;;36.20;16.50;;;10.30;90.70;;;;;;5034129;28;20499;-75
2021/10/18 07:59:55;;;;;;;31.47;15.30;;;10.30;90.90;;;;;;5033954;28;20983;-74
2021/10/18 08:02:20;;;;;;;37.60;17.43;;;10.40;91.00;;;;;;5035429;28;20451;-73
2021/10/18 08:04:46;;;;;;;39.20;16.50;;;10.40;90.80;;;;;;5033388;28;20474;-74
2021/10/18 08:07:12;;;;;;;34.70;16.10;;;10.50;90.80;;;;;;5029781;28;20197;-74
2021/10/18 08:09:38;;;;;;;42.37;17.53;;;10.40;90.30;;;;;;5031849;28;20566;-75
2021/10/18 08:12:04;;;;;;;34.53;16.27;;;10.40;90.50;;;;;;5032164;28;20205;-74
2021/10/18 08:14:29;;;;;;;30.80;15.20;;;10.50;90.30;;;;;;5035221;28;20209;-73
2021/10/18 08:16:55;;;;;;;38.73;16.60;;;10.50;90.10;;;;;;5034807;28;20427;-74
2021/10/18 08:19:21;;;;;;;39.70;17.80;;;10.40;90.20;;;;;;5035819;28;20201;-73
2021/10/18 08:21:47;;;;;;;42.37;18.77;;;10.40;90.10;;;;;;5035056;28;20267;-75
2021/10/18 08:24:12;;;;;;;37.90;15.90;;;10.40;90.00;;;;;;5035425;28;20616;-76
2021/10/18 08:26:38;;;;;;;33.40;16.60;;;10.40;90.10;;;;;;5038724;28;20191;-75
2021/10/18 08:29:04;;;;;;;32.70;16.23;;;10.30;90.20;;;;;;5038979;28;20196;-73
2021/10/18 08:31:29;;;;;;;43.63;18.93;;;10.30;90.40;;;;;;5036220;28;20209;-74
2021/10/18 08:33:55;;;;;;;36.63;17.27;;;10.40;90.40;;;;;;5031147;28;20186;-73
2021/10/18 08:36:21;;;;;;;44.10;17.97;;;10.30;90.20;;;;;;5034769;28;20197;-74
2021/10/18 08:38:47;;;;;;;42.07;17.73;;;10.20;90.40;;;;;;5036752;28;20564;-74
2021/10/18 08:41:36;;;;;;;39.70;18.00;;;10.00;91.20;;;;;;5037083;28;20308;-74
2021/10/18 08:44:17;;;;;;;38.03;16.33;;;9.80;91.50;;;;;;5034401;28;20201;-75
2021/10/18 08:46:47;;;;;;;35.53;17.40;;;9.70;92.10;;;;;;5039654;28;20420;-74
2021/10/18 08:49:16;;;;;;;38.40;18.13;;;9.80;92.20;;;;;;5045760;28;20502;-75
2021/10/18 08:51:42;;;;;;;41.57;18.60;;;9.90;92.30;;;;;;5044169;28;20497;-74
2021/10/18 08:54:09;;;;;;;43.80;18.80;;;10.10;92.20;;;;;;5039775;28;20427;-75
2021/10/18 08:56:36;;;;;;;37.57;18.60;;;10.20;92.00;;;;;;5034614;28;20256;-73
2021/10/18 08:59:02;;;;;;;40.50;16.27;;;10.30;91.30;;;;;;5032979;28;20431;-73
2021/10/18 09:01:49;;;;;;;41.67;16.63;;;10.30;91.10;;;;;;5033454;28;20443;-73
2021/10/18 09:04:26;;;;;;;37.70;16.97;;;10.50;90.90;;;;;;5033793;28;20459;-74
2021/10/18 09:06:55;;;;;;;43.67;19.63;;;10.60;90.40;;;;;;5033762;28;20418;-74
2021/10/18 09:09:25;;;;;;;37.17;16.97;;;10.60;90.20;;;;;;5033480;28;20501;-75
2021/10/18 09:11:53;;;;;;;42.27;17.23;;;10.60;90.00;;;;;;5033831;28;20440;-75
2021/10/18 09:14:19;;;;;;;37.17;17.20;;;10.70;89.60;;;;;;5032778;28;20420;-74
2021/10/18 09:16:46;;;;;;;44.77;19.80;;;10.70;89.50;;;;;;5032232;28;20520;-75
2021/10/18 09:19:16;;;;;;;40.00;18.20;;;10.80;89.50;;;;;;5035129;28;20427;-74
2021/10/18 09:21:47;;;;;;;39.60;17.10;;;10.80;89.20;;;;;;5036712;28;20531;-76
2021/10/18 09:24:29;;;;;;;42.30;18.40;;;10.90;89.00;;;;;;5034002;28;20472;-74
2021/10/18 09:26:58;;;;;;;36.30;17.30;;;10.90;88.90;;;;;;5036910;28;20415;-74
2021/10/18 09:29:45;;;;;;;46.37;18.23;;;11.00;88.00;;;;;;5035903;28;20444;-75
2021/10/18 09:32:26;;;;;;;37.00;17.40;;;11.00;87.70;;;;;;5035193;28;20520;-75
2021/10/18 09:35:04;;;;;;;36.30;17.23;;;10.90;87.30;;;;;;5033665;28;20420;-74
2021/10/18 09:37:38;;;;;;;56.83;19.33;;;10.90;87.40;;;;;;5026167;28;20427;-74
2021/10/18 09:40:04;;;;;;;35.90;15.73;;;11.00;87.70;;;;;;5035584;28;20478;-76
2021/10/18 09:42:30;;;;;;;35.87;16.07;;;10.90;87.60;;;;;;5034817;28;20525;-75
2021/10/18 10:52:42;;;;;;;32.13;17.00;;;11.90;83.10;;;;;;5032335;28;20522;-73
2021/10/18 10:55:43;;;;;;;33.17;17.40;;;12.20;82.70;;;;;;5032018;28;20428;-74
2021/10/18 10:58:50;;;;;;;36.70;17.80;;;12.40;81.40;;;;;;5012354;28;20478;-74
2021/10/18 11:01:45;;;;;;;36.60;17.23;;;12.60;80.60;;;;;;4952060;29;20880;-76
2021/10/18 11:04:29;;;;;;;44.40;16.37;;;12.70;80.30;;;;;;4951923;29;20478;-74
2021/10/18 11:07:05;;;;;;;35.13;16.90;;;12.70;80.00;;;;;;4963246;29;20446;-74
2021/10/18 11:09:56;;;;;;;30.70;16.50;;;12.80;79.70;;;;;;4946988;29;20427;-75
2021/10/18 11:12:31;;;;;;;36.10;17.27;;;12.80;79.30;;;;;;4952928;29;20447;-74
2021/10/18 11:15:02;;;;;;;30.13;16.60;;;12.80;79.50;;;;;;4936683;29;20436;-76
2021/10/18 11:17:31;;;;;;;35.30;16.00;;;12.80;79.50;;;;;;4970024;28;20476;-75
2021/10/18 11:20:00;;;;;;;31.20;16.00;;;13.00;79.00;;;;;;4955026;29;20470;-73
2021/10/18 11:22:33;;;;;;;34.57;16.20;;;13.20;78.00;;;;;;4953897;29;21020;-75
2021/10/18 11:25:01;;;;;;;27.30;14.43;;;13.30;77.00;;;;;;4952493;29;20470;-73
2021/10/18 11:27:33;;;;;;;30.73;16.33;;;13.40;77.30;;;;;;4952636;29;20420;-73
2021/10/18 11:30:02;;;;;;;33.90;16.83;;;13.60;76.10;;;;;;4969763;28;20432;-74
2021/10/18 11:32:27;;;;;;;32.80;15.83;;;13.90;75.70;;;;;;5005146;28;20439;-74
2021/10/18 11:35:15;;;;;;;28.57;15.10;;;14.20;74.30;;;;;;5023472;28;20810;-74
2021/10/18 11:37:59;;;;;;;30.07;15.87;;;14.40;73.20;;;;;;5025945;28;20173;-74
2021/10/18 11:40:35;;;;;;;33.67;17.30;;;14.70;72.60;;;;;;5031351;28;20903;-75
2021/10/18 11:43:06;;;;;;;29.33;14.70;;;14.90;71.30;;;;;;5031399;28;20489;-73
2021/10/18 11:45:38;;;;;;;28.40;15.67;;;15.00;70.70;;;;;;5023181;28;20472;-75
2021/10/18 11:48:17;;;;;;;29.93;15.80;;;15.00;71.40;;;;;;5037256;28;20447;-74
2021/10/18 11:50:45;;;;;;;28.17;14.73;;;15.00;71.60;;;;;;5037100;28;20420;-73
2021/10/18 11:53:15;;;;;;;33.67;16.27;;;15.10;71.60;;;;;;5037301;28;20422;-74
2021/10/18 11:55:56;;;;;;;29.33;16.27;;;15.10;71.00;;;;;;5037420;28;20936;-75
2021/10/18 11:58:26;;;;;;;37.97;18.60;;;15.10;71.60;;;;;;5037672;28;20747;-74
2021/10/18 12:01:03;;;;;;;35.10;17.77;;;15.10;71.40;;;;;;5037728;28;20792;-74
2021/10/18 12:03:31;;;;;;;40.27;19.20;;;15.20;71.70;;;;;;5060784;28;20470;-75
2021/10/18 12:05:59;;;;;;;35.63;18.47;;;15.40;71.00;;;;;;5038093;28;20420;-72
2021/10/18 12:08:33;;;;;;;28.77;16.47;;;15.80;69.70;;;;;;5037449;28;20422;-73
2021/10/18 12:11:02;;;;;;;35.57;17.93;;;16.00;68.60;;;;;;5038384;28;20423;-75
2021/10/18 12:13:29;;;;;;;38.47;20.03;;;15.90;68.20;;;;;;5038084;28;20939;-74
2021/10/18 12:15:58;;;;;;;29.77;17.60;;;15.80;68.60;;;;;;5040028;28;20507;-74
2021/10/18 12:18:29;;;;;;;30.63;16.70;;;15.80;69.10;;;;;;5040781;28;20429;-74
2021/10/18 12:21:08;;;;;;;29.90;16.73;;;15.80;69.10;;;;;;5041488;28;20428;-74
2021/10/18 12:23:53;;;;;;;34.20;16.73;;;16.00;69.40;;;;;;5038597;28;20490;-75
2021/10/18 12:26:24;;;;;;;34.77;16.83;;;16.30;68.00;;;;;;5040011;28;21016;-76
2021/10/18 12:28:49;;;;;;;26.77;16.77;;;16.60;67.20;;;;;;5043541;28;20448;-73
2021/10/18 12:31:39;;;;;;;29.63;16.37;;;16.80;65.80;;;;;;5045985;28;20442;-74
2021/10/18 12:34:13;;;;;;;27.80;15.57;;;16.80;65.30;;;;;;5042182;28;20185;-75
2021/10/18 12:36:57;;;;;;;31.63;16.43;;;16.90;65.70;;;;;;5045325;28;20423;-74
2021/10/18 12:40:01;;;;;;;28.63;15.40;;;17.00;64.40;;;;;;5046804;28;20451;-73
2021/10/18 12:42:27;;;;;;;23.57;14.70;;;17.00;64.40;;;;;;5041284;28;20473;-73
2021/10/18 12:45:14;;;;;;;29.87;15.53;;;17.00;65.00;;;;;;5037512;28;20474;-74
2021/10/18 12:47:59;;;;;;;35.13;16.47;;;17.00;64.20;;;;;;5036595;28;20548;-75
2021/10/18 12:50:27;;;;;;;33.27;16.70;;;16.70;65.30;;;;;;5036602;28;20571;-73
2021/10/18 12:53:00;;;;;;;28.43;16.13;;;16.60;65.40;;;;;;5037335;28;20839;-75
2021/10/18 12:55:29;;;;;;;30.40;15.43;;;16.70;65.00;;;;;;5036997;28;20450;-74
2021/10/18 12:58:02;;;;;;;27.93;15.23;;;16.60;65.30;;;;;;5035540;28;20424;-73
2021/10/18 13:00:33;;;;;;;25.30;14.83;;;16.70;65.30;;;;;;5026898;28;20424;-74
2021/10/18 13:03:19;;;;;;;26.10;14.40;;;16.70;65.00;;;;;;5036203;28;21031;-75
2021/10/18 13:05:58;;;;;;;27.63;14.60;;;16.40;65.70;;;;;;5042107;28;20501;-74
2021/10/18 13:08:25;;;;;;;31.63;15.17;;;16.00;66.30;;;;;;5035237;28;20518;-73
2021/10/18 13:10:53;;;;;;;36.27;17.00;;;15.90;67.20;;;;;;5033332;28;20507;-76
2021/10/18 13:13:21;;;;;;;28.20;14.90;;;15.90;67.70;;;;;;5031421;28;20437;-75
2021/10/18 13:15:48;;;;;;;27.87;14.70;;;15.90;67.50;;;;;;5031679;28;20431;-73
2021/10/18 13:18:16;;;;;;;26.23;15.60;;;16.00;67.60;;;;;;5032790;28;20431;-76
2021/10/18 13:20:43;;;;;;;25.87;14.63;;;16.20;67.30;;;;;;5031491;28;20430;-74
2021/10/18 13:23:10;;;;;;;32.73;16.57;;;16.40;67.00;;;;;;5033203;28;20462;-74
2021/10/18 13:25:40;;;;;;;29.73;15.30;;;16.60;65.60;;;;;;5033119;28;20460;-75
2021/10/18 13:28:08;;;;;;;26.17;14.50;;;16.70;65.30;;;;;;5031759;28;20431;-75
2021/10/18 13:30:35;;;;;;;35.00;14.17;;;16.70;65.60;;;;;;5033216;28;20418;-73
2021/10/18 13:33:01;;;;;;;30.70;16.40;;;16.70;65.40;;;;;;5032231;28;20446;-76
2021/10/18 13:35:28;;;;;;;29.97;15.10;;;16.80;65.40;;;;;;5025709;28;20450;-74
2021/10/18 13:37:55;;;;;;;27.83;15.30;;;16.80;64.80;;;;;;5031484;28;20829;-75
2021/10/18 13:40:23;;;;;;;31.83;15.67;;;16.70;65.40;;;;;;5031627;28;20947;-75
2021/10/18 13:42:49;;;;;;;31.23;16.50;;;16.60;65.80;;;;;;5025513;28;20575;-74
2021/10/18 13:45:18;;;;;;;36.43;16.60;;;16.50;66.30;;;;;;5032203;28;20478;-75
2021/10/18 13:47:45;;;;;;;31.40;15.37;;;16.40;66.10;;;;;;5032506;28;20489;-75